ADDS METAR Data INFO
IDs: Format: Raw Decoded Include TAF

Data at: 2255 UTC 22 Jun 2018

KFBL 222235Z AUTO 36003KT 10SM SCT050 26/15 A2983 RMK AO2
KFBL 222215Z AUTO 33004KT 10SM SCT050 26/14 A2984 RMK AO2
KFBL 222155Z AUTO 34003KT 10SM SCT050 26/14 A2984 RMK AO2
KFBL 222135Z AUTO 04003KT 10SM SCT050 SCT055 26/15 A2984 RMK AO2
KFBL 222115Z AUTO 11003KT 10SM CLR 26/14 A2985 RMK AO2
KFBL 222055Z AUTO 32003KT 10SM SCT060 26/15 A2985 RMK AO2
KFBL 222035Z AUTO 00000KT 10SM SCT060 26/15 A2986 RMK AO2
KFBL 222015Z AUTO 34003KT 10SM SCT040 SCT050 25/16 A2986 RMK AO2
KFBL 221955Z AUTO 03003KT 10SM SCT039 SCT046 26/17 A2986 RMK AO2
KFBL 221935Z AUTO 34005KT 10SM SCT039 25/17 A2987 RMK AO2
KFBL 221915Z AUTO 12003KT 10SM SCT039 24/17 A2988 RMK AO2
KFBL 221855Z AUTO 00000KT 10SM CLR 25/17 A2988 RMK AO2
KFBL 221835Z AUTO 00000KT 10SM CLR 24/16 A2988 RMK AO2
KFBL 221815Z AUTO 03004KT 10SM CLR 24/17 A2988 RMK AO2
KFBL 221755Z AUTO 03003KT 10SM CLR 24/17 A2989 RMK AO2
KFBL 221735Z AUTO 00000KT 10SM CLR 23/17 A2989 RMK AO2
KFBL 221715Z AUTO 04004KT 10SM CLR 23/17 A2989 RMK AO2
KFBL 221655Z AUTO 00000KT 10SM CLR 23/17 A2989 RMK AO2
KFBL 221635Z AUTO 00000KT 10SM CLR 22/17 A2990 RMK AO2
KFBL 221615Z AUTO 04003KT 10SM CLR 23/18 A2991 RMK AO2
KFBL 221555Z AUTO 00000KT 10SM CLR 22/17 A2992 RMK AO2
KFBL 221535Z AUTO 00000KT 10SM CLR 22/17 A2992 RMK AO2
KFBL 221515Z AUTO 00000KT 10SM CLR 21/17 A2992 RMK AO2
KFBL 221455Z AUTO 33004KT 10SM CLR 20/17 A2992 RMK AO2
KFBL 221435Z AUTO 00000KT 10SM CLR 19/17 A2992 RMK AO2
KFBL 221415Z AUTO 00000KT 10SM CLR 19/16 A2992 RMK AO2
KFBL 221355Z AUTO 00000KT 10SM CLR 19/16 A2992 RMK AO2
KFBL 221335Z AUTO 00000KT 10SM CLR 19/16 A2992 RMK AO2
KFBL 221315Z AUTO 34003KT 10SM CLR 19/16 A2992 RMK AO2
KFBL 221255Z AUTO 00000KT 10SM CLR 19/16 A2992 RMK AO2
KFBL 221235Z AUTO 27003KT 10SM CLR 18/15 A2992 RMK AO2
KFBL 221215Z AUTO 00000KT 10SM CLR 17/14 A2992 RMK AO2
KFBL 221155Z AUTO 00000KT 10SM CLR 16/14 A2992 RMK AO2
KFBL 221135Z AUTO 00000KT 10SM CLR 16/14 A2992 RMK AO2
KFBL 221115Z AUTO 00000KT 10SM CLR 16/14 A2992 RMK AO2
KFBL 221055Z AUTO 00000KT 10SM CLR 16/14 A2992 RMK AO2
KFBL 221035Z AUTO 26003KT 10SM CLR 16/14 A2992 RMK AO2
KFBL 221015Z AUTO 00000KT 10SM CLR 16/14 A2992 RMK AO2
KFBL 220955Z AUTO 00000KT 10SM CLR 16/14 A2991 RMK AO2
KFBL 220935Z AUTO 27003KT 10SM CLR 16/14 A2991 RMK AO2
KFBL 220915Z AUTO 00000KT 10SM CLR 16/14 A2991 RMK AO2
KFBL 220855Z AUTO 27003KT 10SM CLR 15/14 A2991 RMK AO2
KFBL 220835Z AUTO 28003KT 10SM CLR 15/14 A2991 RMK AO2
KFBL 220815Z AUTO 00000KT 10SM CLR 16/14 A2990 RMK AO2
KFBL 220755Z AUTO 00000KT 10SM CLR 16/14 A2990 RMK AO2
KFBL 220735Z AUTO 00000KT 10SM CLR 16/14 A2990 RMK AO2
KFBL 220715Z AUTO 00000KT 10SM SCT070 16/14 A2991 RMK AO2
KFBL 220655Z AUTO 16003KT 10SM SCT070 16/14 A2992 RMK AO2
KFBL 220635Z AUTO 00000KT 10SM SCT036 17/14 A2992 RMK AO2
KFBL 220615Z AUTO 00000KT 10SM SCT036 BKN046 BKN055 17/14 A2992 RMK AO2
KFBL 220555Z AUTO 25004KT 10SM SCT036 BKN050 OVC065 17/14 A2992 RMK AO2
KFBL 220535Z AUTO 15003KT 10SM SCT036 BKN047 OVC065 17/14 A2993 RMK AO2
KFBL 220515Z AUTO 25004KT 10SM SCT036 BKN046 BKN055 17/15 A2992 RMK AO2
KFBL 220455Z AUTO 24004KT 10SM SCT037 BKN110 17/15 A2993 RMK AO2
KFBL 220435Z AUTO 22003KT 10SM SCT045 BKN095 120 18/15 A2993 RMK AO2
KFBL 220415Z AUTO 20003KT 10SM SCT041 BKN050 OVC075 18/15 A2994 RMK AO2
KFBL 220355Z AUTO 00000KT 10SM SCT041 OVC075 18/15 A2993 RMK AO2
KFBL 220335Z AUTO 17003KT 10SM SCT045 SCT060 OVC085 18/15 A2994 RMK AO2
KFBL 220315Z AUTO 00000KT 10SM SCT049 BKN085 OVC090 18/15 A2993 RMK AO2
KFBL 220255Z AUTO 00000KT 10SM SCT050 BKN080 OVC095 18/15 A2993 RMK AO2
KFBL 220235Z AUTO 00000KT 10SM SCT050 SCT060 BKN070 18/14 A2992 RMK AO2
KFBL 220215Z AUTO 17003KT 10SM BKN050 BKN070 OVC090 19/16 A2992 RMK AO2
KFBL 220155Z AUTO 00000KT 10SM SCT060 BKN090 19/16 A2991 RMK AO2
KFBL 220135Z AUTO 00000KT 10SM SCT060 SCT090 19/16 A2992 RMK AO2
KFBL 220115Z AUTO 15004KT 10SM CLR 19/16 A2991 RMK AO2
KFBL 220055Z AUTO 00000KT 10SM CLR 20/16 A2991 RMK AO2
KFBL 220035Z AUTO 18003KT 10SM CLR 20/16 A2990 RMK AO2
KFBL 220015Z AUTO 00000KT 10SM CLR 21/16 A2989 RMK AO2
KFBL 212355Z AUTO 00000KT 10SM -DZ CLR 21/16 A2990 RMK AO2
KFBL 212347Z AUTO 10003KT 10SM -RA CLR 21/16 A2990 RMK AO2
KFBL 212319Z AUTO 13005KT 10SM CLR 21/16 A2990 RMK AO2
KFBL 212315Z AUTO 13005KT 10SM CLR 21/16 A2990 RMK AO2
KFBL 212255Z AUTO 10007KT 10SM SCT037 SCT043 21/16 A2990 RMK AO2
KFBL 212235Z AUTO 13006KT 10SM -RA SCT039 SCT050 21/16 A2990 RMK AO2
KFBL 212215Z AUTO 11006KT 10SM SCT110 22/16 A2990 RMK AO2
KFBL 212155Z AUTO 14004KT 10SM SCT110 22/16 A2990 RMK AO2
KFBL 212135Z AUTO 07005KT 10SM SCT110 22/15 A2990 RMK AO2
KFBL 212115Z AUTO 07006KT 10SM CLR 22/14 A2990 RMK AO2
KFBL 212055Z AUTO 09007KT 10SM CLR 22/14 A2990 RMK AO2
KFBL 212035Z AUTO 08009G14KT 10SM SCT042 22/14 A2990 RMK AO2
KFBL 212015Z AUTO 05011G18KT 10SM SCT034 SCT042 21/14 A2990 RMK AO2
KFBL 212001Z AUTO 05009KT 10SM SCT027 SCT038 22/16 A2990 RMK AO2
KFBL 211827Z AUTO 05009KT 10SM SCT100 19/16 A2989 RMK AO2
KFBL 211816Z AUTO 04008G14KT 10SM SCT100 19/16 A2989 RMK AO2
KFBL 211815Z AUTO 04006G14KT 10SM SCT100 19/16 A2989 RMK AO2
KFBL 211755Z AUTO 06009G16KT 10SM SCT110 19/16 A2989 RMK AO2
KFBL 211735Z AUTO 06010KT 10SM -RA SCT110 18/16 A2989 RMK AO2 LTG DSNT SE
KFBL 211716Z AUTO 06008KT 10SM -RA CLR 18/16 A2989 RMK AO2
KFBL 211715Z AUTO 07010KT 10SM -RA CLR 18/16 A2989 RMK AO2
KFBL 211655Z AUTO 03007KT 10SM -RA SCT070 SCT080 18/16 A2988 RMK AO2
KFBL 211635Z AUTO 05006KT 10SM -RA SCT015 SCT070 BKN080 17/16 A2988 RMK AO2
KFBL 211615Z AUTO 04006KT 10SM -DZ SCT049 SCT060 BKN090 17/16 A2988 RMK AO2
KFBL 211555Z AUTO 04006KT 10SM -RA SCT060 17/16 A2987 RMK AO2
KFBL 211536Z AUTO 06008KT 10SM -RA SCT060 SCT075 17/15 A2988 RMK AO2
KFBL 211535Z AUTO 07008KT 10SM -RA SCT060 SCT075 17/15 A2988 RMK AO2
KFBL 211515Z AUTO 06010KT 10SM -DZ BKN060 16/15 A2988 RMK AO2
KFBL 211455Z AUTO 05006KT 10SM -RA OVC060 16/14 A2988 RMK AO2 P0001
KFBL 211436Z AUTO 07010G17KT 10SM -RA SCT029 BKN060 16/14 A2988 RMK AO2
KFBL 211435Z AUTO 06010G17KT 10SM -RA SCT029 BKN060 BKN070 16/14 A2988 RMK AO2
KFBL 211415Z AUTO 05007KT 032V092 10SM -RA OVC060 16/14 A2988 RMK AO2
KFBL 211355Z AUTO 04006KT 10SM -RA BKN055 OVC070 16/14 A2987 RMK AO2 P0001
KFBL 211336Z AUTO 04007KT 7SM RA OVC055 16/13 A2987 RMK AO2 P0001
KFBL 211335Z AUTO 04007KT 7SM RA OVC055 16/13 A2987 RMK AO2 P0001
KFBL 211315Z AUTO 04008G14KT 10SM -RA OVC055 16/14 A2986 RMK AO2
KFBL 211255Z AUTO 05009G16KT 10SM DZ SCT038 BKN049 OVC090 16/13 A2986 RMK AO2
KFBL 211236Z AUTO 04005KT 10SM -RA SCT034 SCT048 BKN095 16/14 A2985 RMK AO2
KFBL 211235Z AUTO 04007KT 10SM -RA SCT034 SCT048 BKN095 16/14 A2985 RMK AO2
KFBL 211215Z AUTO 03005KT 10SM -RA BKN044 BKN100 16/14 A2985 RMK AO2
KFBL 211155Z AUTO 04004KT 10SM RA BKN044 BKN075 OVC085 16/13 A2984 RMK AO2 P0002
KFBL 211136Z AUTO 04008G17KT 10SM -RA SCT042 OVC075 16/13 A2984 RMK AO2 P0002
KFBL 211135Z AUTO 05010G17KT 10SM -RA SCT042 OVC075 16/13 A2984 RMK AO2 P0002
KFBL 211115Z AUTO 04010G19KT 10SM -RA BKN042 OVC075 16/14 A2983 RMK AO2 P0001